createdAt,value
2023-03-12T00:00:35.341Z,97539.00
2023-03-12T00:03:23.619Z,97552.84
2023-03-12T00:05:52.178Z,97554.16
2023-03-12T00:08:21.764Z,97551.72
2023-03-12T00:10:50.208Z,97554.28
2023-03-12T00:13:18.458Z,97564.66
2023-03-12T00:15:46.944Z,97567.91
2023-03-12T00:18:15.299Z,97562.53
2023-03-12T00:20:43.884Z,97569.56
2023-03-12T00:23:12.157Z,97568.53
2023-03-12T00:25:44.228Z,97571.34
2023-03-12T00:28:14.523Z,97586.41
2023-03-12T00:30:43.942Z,97572.78
2023-03-12T00:33:12.406Z,97576.59
2023-03-12T00:35:40.913Z,97581.06
2023-03-12T00:38:09.098Z,97586.28
2023-03-12T00:40:39.365Z,97585.22
2023-03-12T00:43:08.959Z,97586.91
2023-03-12T00:45:37.663Z,97597.97
2023-03-12T00:48:06.133Z,97587.22
2023-03-12T00:50:34.656Z,97588.22
2023-03-12T00:53:02.866Z,97588.13
2023-03-12T00:55:31.826Z,97590.88
2023-03-12T00:58:00.038Z,97600.16
2023-03-12T01:00:30.045Z,97598.13
2023-03-12T01:02:58.283Z,97592.94
2023-03-12T01:05:26.775Z,97600.94
2023-03-12T01:07:55.219Z,97599.66
2023-03-12T01:10:23.896Z,97599.25
2023-03-12T01:12:52.168Z,97591.81
2023-03-12T01:15:20.675Z,97597.22
2023-03-12T01:17:50.301Z,97583.28
2023-03-12T01:20:18.934Z,97587.78
2023-03-12T01:22:47.154Z,97585.50
2023-03-12T01:25:15.886Z,97580.03
2023-03-12T01:27:44.130Z,97582.19
2023-03-12T01:30:13.802Z,97572.75
2023-03-12T01:32:42.132Z,97578.13
2023-03-12T01:35:12.576Z,97585.06
2023-03-12T01:37:40.795Z,97585.44
2023-03-12T01:40:12.574Z,97584.50
2023-03-12T01:42:40.826Z,97584.09
2023-03-12T01:45:42.710Z,97574.63
2023-03-12T01:48:10.713Z,97581.31
2023-03-12T01:50:40.582Z,97587.97
2023-03-12T01:53:09.014Z,97587.56
2023-03-12T01:55:37.619Z,97590.00
2023-03-12T01:58:07.031Z,97603.66
2023-03-12T02:00:35.906Z,97591.69
2023-03-12T02:03:07.720Z,97600.56
2023-03-12T02:05:48.235Z,97604.88
2023-03-12T02:08:18.470Z,97610.22
2023-03-12T02:10:47.962Z,97608.38
2023-03-12T02:13:16.246Z,97616.41
2023-03-12T02:15:44.767Z,97606.44
2023-03-12T02:18:16.644Z,97606.75
2023-03-12T02:20:52.276Z,97614.91
2023-03-12T02:23:25.378Z,97603.47
2023-03-12T02:25:55.709Z,97616.47
2023-03-12T02:28:27.405Z,97618.81
2023-03-12T02:31:00.089Z,97621.59
2023-03-12T02:33:28.593Z,97629.50
2023-03-12T02:35:57.846Z,97636.91
2023-03-12T02:38:39.186Z,97639.75
2023-03-12T02:41:13.033Z,97643.63
2023-03-12T02:43:42.485Z,97634.41
2023-03-12T02:46:11.108Z,97644.44
2023-03-12T02:48:39.347Z,97639.41
2023-03-12T02:51:07.878Z,97647.72
2023-03-12T02:53:36.100Z,97646.56
2023-03-12T02:56:05.345Z,97664.84
2023-03-12T02:58:34.910Z,97656.34
2023-03-12T03:01:03.434Z,97656.19
2023-03-12T03:03:31.832Z,97663.91
2023-03-12T03:06:00.283Z,97666.63
2023-03-12T03:08:28.552Z,97665.56
2023-03-12T03:10:57.070Z,97676.91
2023-03-12T03:13:25.477Z,97677.88
2023-03-12T03:15:57.770Z,97686.59
2023-03-12T03:18:26.252Z,97693.69
2023-03-12T03:20:58.341Z,97680.03
2023-03-12T03:23:26.590Z,97681.28
2023-03-12T03:25:55.819Z,97686.63
2023-03-12T03:28:25.921Z,97695.53
2023-03-12T03:30:58.350Z,97694.81
2023-03-12T03:33:26.793Z,97703.28
2023-03-12T03:35:55.607Z,97703.88
2023-03-12T03:38:24.033Z,97705.03
2023-03-12T03:40:52.544Z,97708.06
2023-03-12T03:43:21.111Z,97708.69
2023-03-12T03:45:49.621Z,97714.84
2023-03-12T03:48:19.261Z,97714.63
2023-03-12T03:50:47.982Z,97720.81
2023-03-12T03:53:16.251Z,97719.19
2023-03-12T03:55:44.831Z,97725.63
2023-03-12T03:58:13.292Z,97712.28
2023-03-12T04:00:41.796Z,97723.41
2023-03-12T04:03:10.080Z,97716.25
2023-03-12T04:05:40.618Z,97715.56
2023-03-12T04:08:09.198Z,97717.19
2023-03-12T04:10:38.616Z,97717.34
2023-03-12T04:13:06.852Z,97718.25
2023-03-12T04:15:35.709Z,97714.41
2023-03-12T04:18:04.048Z,97719.44
2023-03-12T04:20:32.603Z,97713.47
2023-03-12T04:23:02.250Z,97721.09
2023-03-12T04:25:30.678Z,97707.84
2023-03-12T04:27:58.828Z,97720.94
2023-03-12T04:30:27.389Z,97718.25
2023-03-12T04:32:56.146Z,97722.81
2023-03-12T04:35:26.392Z,97729.47
2023-03-12T04:37:54.552Z,97735.22
2023-03-12T04:40:24.521Z,97734.56
2023-03-12T04:42:52.848Z,97727.75
2023-03-12T04:45:21.420Z,97743.63
2023-03-12T04:47:49.608Z,97734.28
2023-03-12T04:50:18.694Z,97737.91
2023-03-12T04:52:46.927Z,97735.34
2023-03-12T04:55:15.406Z,97744.34
2023-03-12T04:57:44.972Z,97739.22
2023-03-12T05:00:14.348Z,97743.06
2023-03-12T05:02:44.961Z,97739.09
2023-03-12T05:05:13.785Z,97742.25
2023-03-12T05:07:42.250Z,97746.00
2023-03-12T05:10:11.803Z,97748.22
2023-03-12T05:12:40.067Z,97746.25
2023-03-12T05:15:11.029Z,97742.28
2023-03-12T05:17:39.247Z,97739.69
2023-03-12T05:20:08.448Z,97762.88
2023-03-12T05:22:36.623Z,97759.97
2023-03-12T05:25:06.071Z,97762.78
2023-03-12T05:27:34.724Z,97766.47
2023-03-12T05:30:04.579Z,97757.94
2023-03-12T05:32:34.367Z,97774.06
2023-03-12T05:35:02.877Z,97766.81
2023-03-12T05:37:31.090Z,97773.03
2023-03-12T05:40:00.717Z,97775.69
2023-03-12T05:42:28.919Z,97783.59
2023-03-12T05:44:59.475Z,97782.63
2023-03-12T05:47:27.672Z,97787.91
2023-03-12T05:49:57.633Z,97784.91
2023-03-12T05:52:25.835Z,97799.16
2023-03-12T05:54:54.674Z,97794.28
2023-03-12T05:57:23.198Z,97791.50
2023-03-12T05:59:51.717Z,97790.19
2023-03-12T06:02:20.193Z,97792.72
2023-03-12T06:04:48.887Z,97797.25
2023-03-12T06:07:18.733Z,97806.09
2023-03-12T06:09:47.291Z,97798.56
2023-03-12T06:12:15.582Z,97797.56
2023-03-12T06:14:44.241Z,97807.16
2023-03-12T06:17:12.734Z,97810.16
2023-03-12T06:19:41.187Z,97812.63
2023-03-12T06:22:09.464Z,97818.22
2023-03-12T06:24:42.328Z,97822.28
2023-03-12T06:27:10.562Z,97818.94
2023-03-12T06:29:39.103Z,97819.97
2023-03-12T06:32:08.002Z,97821.00
2023-03-12T06:34:36.663Z,97833.63
2023-03-12T06:37:05.359Z,97833.28
2023-03-12T06:39:33.923Z,97835.78
2023-03-12T06:42:03.585Z,97841.28
2023-03-12T06:44:32.420Z,97832.69
2023-03-12T06:47:00.764Z,97827.44
2023-03-12T06:49:32.310Z,97836.47
2023-03-12T06:52:00.378Z,97837.66
2023-03-12T06:54:29.001Z,97843.03
2023-03-12T06:56:59.182Z,97845.53
2023-03-12T06:59:29.461Z,97851.91
2023-03-12T07:01:58.273Z,97850.44
2023-03-12T07:04:26.873Z,97846.94
2023-03-12T07:06:55.297Z,97841.44
2023-03-12T07:09:25.855Z,97843.44
2023-03-12T07:11:54.008Z,97836.34
2023-03-12T07:14:24.808Z,97851.72
2023-03-12T07:16:54.551Z,97835.56
2023-03-12T07:19:23.116Z,97829.25
2023-03-12T07:21:51.370Z,97843.91
2023-03-12T07:24:22.489Z,97842.63
2023-03-12T07:26:50.712Z,97841.09
2023-03-12T07:29:22.124Z,97832.19
2023-03-12T07:31:50.407Z,97826.94
2023-03-12T07:34:20.593Z,97824.22
2023-03-12T07:36:50.171Z,97831.03
2023-03-12T07:39:19.411Z,97831.22
2023-03-12T07:41:47.982Z,97814.91
2023-03-12T07:44:19.494Z,97830.44
2023-03-12T07:46:47.854Z,97838.28
2023-03-12T07:49:17.569Z,97843.84
2023-03-12T07:51:47.503Z,97819.34
2023-03-12T07:54:18.495Z,97829.31
2023-03-12T07:56:46.795Z,97829.78
2023-03-12T07:59:15.536Z,97835.72
2023-03-12T08:01:45.416Z,97835.22
2023-03-12T08:04:17.899Z,97834.81
2023-03-12T08:06:49.380Z,97834.03
2023-03-12T08:09:33.762Z,97829.06
2023-03-12T08:12:08.964Z,97833.38
2023-03-12T08:14:52.886Z,97826.91
2023-03-12T08:17:21.541Z,97819.72
2023-03-12T08:19:50.170Z,97825.00
2023-03-12T08:22:19.838Z,97843.22
2023-03-12T08:24:48.866Z,97834.59
2023-03-12T08:27:17.182Z,97839.88
2023-03-12T08:29:45.709Z,97836.66
2023-03-12T08:32:14.304Z,97838.72
2023-03-12T08:34:42.950Z,97848.22
2023-03-12T08:37:11.259Z,97846.50
2023-03-12T08:39:41.609Z,97847.97
2023-03-12T08:42:10.097Z,97844.50
2023-03-12T08:44:38.859Z,97853.19
2023-03-12T08:47:07.213Z,97856.47
2023-03-12T08:49:35.894Z,97847.31
2023-03-12T08:52:04.193Z,97849.59
2023-03-12T08:54:32.722Z,97846.81
2023-03-12T08:57:02.471Z,97844.59
2023-03-12T08:59:30.994Z,97852.97
2023-03-12T09:01:59.361Z,97865.38
2023-03-12T09:04:28.096Z,97860.63
2023-03-12T09:06:56.364Z,97856.63
2023-03-12T09:09:24.816Z,97840.50
2023-03-12T09:11:53.065Z,97842.16
2023-03-12T09:15:00.993Z,97837.84
2023-03-12T09:17:11.469Z,97847.19
2023-03-12T09:19:40.917Z,97850.25
2023-03-12T09:22:09.492Z,97841.28
2023-03-12T09:24:38.003Z,97846.28
2023-03-12T09:27:06.380Z,97838.16
2023-03-12T09:29:43.786Z,97844.69
2023-03-12T09:32:21.668Z,97851.16
2023-03-12T09:34:50.394Z,97853.91
2023-03-12T09:37:18.713Z,97844.47
2023-03-12T09:39:47.266Z,97851.09
2023-03-12T09:42:24.252Z,97851.88
2023-03-12T09:44:56.287Z,97853.19
2023-03-12T09:47:28.452Z,97847.63
2023-03-12T09:50:00.434Z,97845.88
2023-03-12T09:52:32.412Z,97851.25
2023-03-12T09:55:05.140Z,97851.00
2023-03-12T09:57:33.455Z,97843.63
2023-03-12T10:00:06.825Z,97848.44
2023-03-12T10:02:48.326Z,97834.59
2023-03-12T10:05:20.184Z,97837.81
2023-03-12T10:07:53.320Z,97831.00
2023-03-12T10:10:32.281Z,97838.94
2023-03-12T10:13:14.825Z,97830.41
2023-03-12T10:15:52.579Z,97826.09
2023-03-12T10:18:30.861Z,97830.16
2023-03-12T10:21:07.661Z,97832.47
2023-03-12T10:23:42.973Z,97833.13
2023-03-12T10:26:15.233Z,97825.72
2023-03-12T10:28:46.688Z,97840.63
2023-03-12T10:31:21.292Z,97829.72
2023-03-12T10:33:52.382Z,97837.16
2023-03-12T10:36:21.374Z,97840.22
2023-03-12T10:38:49.870Z,97829.09
2023-03-12T10:41:21.023Z,97838.28
2023-03-12T10:43:49.216Z,97834.06
2023-03-12T10:47:02.504Z,97837.25
2023-03-12T10:49:34.485Z,97843.34
2023-03-12T10:52:07.021Z,97838.50
2023-03-12T10:54:37.541Z,97843.16
2023-03-12T10:57:06.917Z,97852.47
2023-03-12T10:59:36.766Z,97846.38
2023-03-12T11:02:32.593Z,97851.56
2023-03-12T11:05:03.279Z,97852.91
2023-03-12T11:07:33.065Z,97846.00
2023-03-12T11:10:15.771Z,97842.41
2023-03-12T11:12:58.427Z,97845.84
2023-03-12T11:15:29.282Z,97849.13
2023-03-12T11:18:29.965Z,97849.13
2023-03-12T11:21:14.536Z,97840.81
2023-03-12T11:23:45.352Z,97835.69
2023-03-12T11:26:15.955Z,97841.78
2023-03-12T11:28:45.874Z,97844.25
2023-03-12T11:31:20.688Z,97833.16
2023-03-12T11:33:49.452Z,97838.94
2023-03-12T11:36:27.440Z,97860.25
2023-03-12T11:38:59.182Z,97856.00
2023-03-12T11:41:43.221Z,97855.50
2023-03-12T11:44:22.528Z,97849.56
2023-03-12T11:47:01.210Z,97847.66
2023-03-12T11:49:40.739Z,97844.81
2023-03-12T11:52:15.348Z,97851.84
2023-03-12T11:54:59.865Z,97853.28
2023-03-12T11:57:36.322Z,97852.03
2023-03-12T12:00:13.522Z,97857.41
2023-03-12T12:02:56.520Z,97853.84
2023-03-12T12:05:32.773Z,97852.91
2023-03-12T12:08:11.925Z,97832.72
2023-03-12T12:10:47.321Z,97848.72
2023-03-12T12:13:20.412Z,97846.81
2023-03-12T12:15:55.870Z,97848.16
2023-03-12T12:18:43.038Z,97852.31
2023-03-12T12:21:25.514Z,97841.63
2023-03-12T12:23:59.821Z,97854.44
2023-03-12T12:26:33.303Z,97852.75
2023-03-12T12:29:16.196Z,97849.06
2023-03-12T12:31:48.200Z,97859.66
2023-03-12T12:34:34.194Z,97852.00
2023-03-12T12:37:18.476Z,97855.91
2023-03-12T12:39:53.217Z,97850.75
2023-03-12T12:42:26.129Z,97848.16
2023-03-12T12:44:55.425Z,97835.63
2023-03-12T12:47:33.447Z,97846.09
2023-03-12T12:50:02.058Z,97841.63
2023-03-12T12:52:30.866Z,97850.97
2023-03-12T12:55:06.781Z,97843.66
2023-03-12T12:57:41.215Z,97841.31
2023-03-12T13:00:16.867Z,97839.53
2023-03-12T13:02:47.998Z,97831.19
2023-03-12T13:05:21.983Z,97840.75
2023-03-12T13:07:50.646Z,97837.34
2023-03-12T13:10:48.765Z,97826.59
2023-03-12T13:13:27.468Z,97845.06
2023-03-12T13:16:21.446Z,97839.38
2023-03-12T13:19:00.383Z,97838.66
2023-03-12T13:21:36.026Z,97836.41
2023-03-12T13:24:18.278Z,97838.56
2023-03-12T13:26:59.024Z,97839.94
2023-03-12T13:29:39.064Z,97841.53
2023-03-12T13:32:10.584Z,97843.13
2023-03-12T13:34:48.281Z,97839.22
2023-03-12T13:37:22.031Z,97848.34
2023-03-12T13:39:50.669Z,97852.28
2023-03-12T13:42:38.474Z,97839.84
2023-03-12T13:45:28.779Z,97835.28
2023-03-12T13:48:00.779Z,97843.34
2023-03-12T13:50:31.209Z,97844.47
2023-03-12T13:53:04.925Z,97853.50
2023-03-12T13:55:35.033Z,97846.50
2023-03-12T13:58:08.780Z,97849.13
2023-03-12T14:00:40.609Z,97848.66
2023-03-12T14:03:14.120Z,97858.81
2023-03-12T14:05:49.840Z,97853.81
2023-03-12T14:08:48.930Z,97860.72
2023-03-12T14:11:30.696Z,97859.88
2023-03-12T14:14:16.652Z,97859.81
2023-03-12T14:16:49.503Z,97863.75
2023-03-12T14:19:24.290Z,97850.16
2023-03-12T14:21:53.232Z,97856.88
2023-03-12T14:24:26.932Z,97873.41
2023-03-12T14:26:56.696Z,97875.75
2023-03-12T14:29:29.341Z,97870.34
2023-03-12T14:32:02.562Z,97860.31
2023-03-12T14:34:33.446Z,97882.44
2023-03-12T14:37:05.998Z,97879.84
2023-03-12T14:39:36.713Z,97868.72
2023-03-12T14:42:08.027Z,97872.88
2023-03-12T14:44:37.824Z,97877.88
2023-03-12T14:47:11.670Z,97877.28
2023-03-12T14:49:41.777Z,97873.31
2023-03-12T14:52:12.788Z,97877.78
2023-03-12T14:54:41.324Z,97878.72
2023-03-12T14:57:15.615Z,97878.28
2023-03-12T14:59:54.013Z,97881.53
2023-03-12T15:02:24.826Z,97873.72
2023-03-12T15:04:56.483Z,97874.59
2023-03-12T15:07:29.632Z,97885.81
2023-03-12T15:09:57.943Z,97868.66
2023-03-12T15:12:28.047Z,97865.44
2023-03-12T15:15:02.157Z,97875.03
2023-03-12T15:17:33.526Z,97877.63
2023-03-12T15:20:03.375Z,97880.84
2023-03-12T15:22:32.246Z,97877.06
2023-03-12T15:25:04.072Z,97879.22
2023-03-12T15:27:34.209Z,97863.56
2023-03-12T15:30:03.035Z,97875.19
2023-03-12T15:32:33.084Z,97865.78
2023-03-12T15:35:14.300Z,97848.00
2023-03-12T15:37:42.999Z,97867.38
2023-03-12T15:40:21.489Z,97863.03
2023-03-12T15:42:50.317Z,97853.03
2023-03-12T15:45:21.516Z,97862.69
2023-03-12T15:47:52.681Z,97868.97
2023-03-12T15:50:23.204Z,97867.09
2023-03-12T15:53:03.174Z,97875.53
2023-03-12T15:55:32.658Z,97863.47
2023-03-12T15:58:01.797Z,97871.41
2023-03-12T16:00:31.984Z,97872.28
2023-03-12T16:03:04.656Z,97865.97
2023-03-12T16:05:34.588Z,97864.47
2023-03-12T16:08:07.315Z,97884.44
2023-03-12T16:10:38.861Z,97886.81
2023-03-12T16:13:07.453Z,97876.09
2023-03-12T16:15:38.888Z,97869.44
2023-03-12T16:18:13.470Z,97859.72
2023-03-12T16:20:41.876Z,97876.66
2023-03-12T16:23:10.617Z,97877.47
2023-03-12T16:25:39.262Z,97875.03
2023-03-12T16:28:08.024Z,97880.22
2023-03-12T16:30:37.944Z,97870.91
2023-03-12T16:33:09.451Z,97887.78
2023-03-12T16:35:38.067Z,97887.91
2023-03-12T16:38:07.272Z,97902.78
2023-03-12T16:40:37.079Z,97884.56
2023-03-12T16:43:07.537Z,97896.53
2023-03-12T16:45:37.669Z,97888.59
2023-03-12T16:48:08.737Z,97892.41
2023-03-12T16:50:36.951Z,97901.19
2023-03-12T16:53:06.020Z,97906.34
2023-03-12T16:55:46.168Z,97897.19
2023-03-12T16:58:15.457Z,97899.50
2023-03-12T17:00:43.880Z,97897.34
2023-03-12T17:03:20.127Z,97892.59
2023-03-12T17:05:48.648Z,97891.34
2023-03-12T17:08:17.585Z,97894.59
2023-03-12T17:10:45.973Z,97900.63
2023-03-12T17:13:20.210Z,97887.44
2023-03-12T17:15:49.009Z,97882.06
2023-03-12T17:18:18.991Z,97877.16
2023-03-12T17:20:48.007Z,97874.47
2023-03-12T17:23:16.753Z,97874.78
2023-03-12T17:25:45.391Z,97876.94
2023-03-12T17:28:15.490Z,97875.31
2023-03-12T17:30:44.737Z,97862.50
2023-03-12T17:33:14.981Z,97875.53
2023-03-12T17:35:44.910Z,97867.41
2023-03-12T17:38:14.240Z,97871.75
2023-03-12T17:40:43.080Z,97871.50
2023-03-12T17:43:11.826Z,97876.09
2023-03-12T17:45:40.107Z,97883.19
2023-03-12T17:48:08.923Z,97889.44
2023-03-12T17:50:37.416Z,97885.38
2023-03-12T17:53:07.633Z,97879.66
2023-03-12T17:55:36.626Z,97861.41
2023-03-12T17:58:06.203Z,97865.75
2023-03-12T18:00:34.713Z,97868.47
2023-03-12T18:03:03.616Z,97860.06
2023-03-12T18:05:31.907Z,97846.19
2023-03-12T18:08:00.621Z,97844.84
2023-03-12T18:10:30.355Z,97847.53
2023-03-12T18:12:59.013Z,97850.00
2023-03-12T18:15:27.323Z,97852.72
2023-03-12T18:17:56.984Z,97851.34
2023-03-12T18:20:37.475Z,97862.22
2023-03-12T18:23:07.233Z,97863.34
2023-03-12T18:25:38.611Z,97861.41
2023-03-12T18:28:07.392Z,97858.97
2023-03-12T18:30:35.925Z,97872.84
2023-03-12T18:33:04.586Z,97876.13
2023-03-12T18:35:32.994Z,97878.28
2023-03-12T18:38:01.601Z,97876.94
2023-03-12T18:40:32.924Z,97883.19
2023-03-12T18:43:03.143Z,97882.09
2023-03-12T18:45:31.824Z,97867.41
2023-03-12T18:48:00.395Z,97845.63
2023-03-12T18:50:28.717Z,97842.91
2023-03-12T18:52:57.352Z,97834.22
2023-03-12T18:55:25.711Z,97844.28
2023-03-12T18:57:54.421Z,97841.81
2023-03-12T19:00:24.910Z,97842.63
2023-03-12T19:02:54.039Z,97846.19
2023-03-12T19:05:22.518Z,97843.19
2023-03-12T19:07:51.463Z,97848.88
2023-03-12T19:10:19.887Z,97845.91
2023-03-12T19:12:53.149Z,97855.16
2023-03-12T19:15:24.570Z,97851.09
2023-03-12T19:17:54.347Z,97855.41
2023-03-12T19:20:23.063Z,97841.81
2023-03-12T19:22:51.708Z,97836.38
2023-03-12T19:25:20.608Z,97838.28
2023-03-12T19:27:49.805Z,97847.28
2023-03-12T19:30:18.336Z,97847.00
2023-03-12T19:32:48.340Z,97847.81
2023-03-12T19:35:16.920Z,97853.25
2023-03-12T19:37:45.694Z,97850.53
2023-03-12T19:40:14.856Z,97849.44
2023-03-12T19:42:43.489Z,97850.00
2023-03-12T19:45:13.961Z,97851.63
2023-03-12T19:47:42.582Z,97852.16
2023-03-12T19:50:13.340Z,97843.94
2023-03-12T19:52:41.890Z,97842.94
2023-03-12T19:55:12.036Z,97845.09
2023-03-12T19:57:41.229Z,97829.03
2023-03-12T20:00:12.433Z,97837.72
2023-03-12T20:02:41.536Z,97825.50
2023-03-12T20:05:12.282Z,97827.13
2023-03-12T20:07:41.016Z,97812.44
2023-03-12T20:10:11.196Z,97820.03
2023-03-12T20:12:40.173Z,97810.53
2023-03-12T20:15:09.407Z,97806.16
2023-03-12T20:17:38.324Z,97806.97
2023-03-12T20:20:09.225Z,97799.63
2023-03-12T20:22:39.288Z,97793.38
2023-03-12T20:25:10.007Z,97797.19
2023-03-12T20:27:38.758Z,97783.06
2023-03-12T20:30:08.460Z,97780.88
2023-03-12T20:32:37.329Z,97777.91
2023-03-12T20:35:06.133Z,97768.38
2023-03-12T20:37:34.780Z,97764.03
2023-03-12T20:40:05.328Z,97756.38
2023-03-12T20:42:34.114Z,97761.03
2023-03-12T20:45:02.369Z,97764.84
2023-03-12T20:47:30.949Z,97755.88
2023-03-12T20:49:59.564Z,97754.25
2023-03-12T20:52:28.370Z,97749.34
2023-03-12T20:54:56.772Z,97748.22
2023-03-12T20:57:26.778Z,97753.06
2023-03-12T20:59:55.098Z,97753.41
2023-03-12T21:02:24.040Z,97752.84
2023-03-12T21:04:54.192Z,97751.75
2023-03-12T21:07:22.667Z,97746.88
2023-03-12T21:09:50.899Z,97749.59
2023-03-12T21:12:19.491Z,97746.88
2023-03-12T21:14:49.240Z,97745.16
2023-03-12T21:17:17.914Z,97742.50
2023-03-12T21:19:46.587Z,97744.69
2023-03-12T21:22:15.712Z,97744.41
2023-03-12T21:24:43.973Z,97752.56
2023-03-12T21:27:13.130Z,97756.06
2023-03-12T21:29:41.485Z,97748.16
2023-03-12T21:32:11.588Z,97741.28
2023-03-12T21:34:39.949Z,97741.09
2023-03-12T21:37:08.620Z,97748.16
2023-03-12T21:39:36.866Z,97749.22
2023-03-12T21:42:05.636Z,97747.31
2023-03-12T21:44:35.924Z,97746.41
2023-03-12T21:47:05.179Z,97751.91
2023-03-12T21:49:35.852Z,97745.28
2023-03-12T21:52:05.357Z,97741.31
2023-03-12T21:54:34.361Z,97733.41
2023-03-12T21:57:03.511Z,97742.06
2023-03-12T21:59:32.489Z,97749.13
2023-03-12T22:02:00.997Z,97753.81
2023-03-12T22:04:29.656Z,97745.75
2023-03-12T22:07:00.073Z,97744.56
2023-03-12T22:09:28.572Z,97734.69
2023-03-12T22:11:57.074Z,97732.75
2023-03-12T22:14:25.615Z,97738.66
2023-03-12T22:16:54.758Z,97731.03
2023-03-12T22:19:24.168Z,97728.91
2023-03-12T22:21:52.810Z,97731.84
2023-03-12T22:24:22.421Z,97727.41
2023-03-12T22:26:51.117Z,97714.44
2023-03-12T22:29:19.256Z,97711.50
2023-03-12T22:31:48.172Z,97716.03
2023-03-12T22:34:16.615Z,97729.69
2023-03-12T22:36:45.381Z,97727.25
2023-03-12T22:39:13.640Z,97718.81
2023-03-12T22:41:43.658Z,97718.22
2023-03-12T22:44:12.053Z,97705.53
2023-03-12T22:46:40.597Z,97704.69
2023-03-12T22:49:08.967Z,97712.56
2023-03-12T22:51:37.652Z,97712.59
2023-03-12T22:54:06.108Z,97723.00
2023-03-12T22:56:34.969Z,97723.75
2023-03-12T22:59:04.678Z,97715.19
2023-03-12T23:01:33.290Z,97722.41
2023-03-12T23:04:04.090Z,97727.75
2023-03-12T23:06:32.650Z,97706.31
2023-03-12T23:09:01.184Z,97706.16
2023-03-12T23:11:29.893Z,97700.69
2023-03-12T23:13:58.568Z,97716.56
2023-03-12T23:16:28.861Z,97708.03
2023-03-12T23:18:57.489Z,97711.03
2023-03-12T23:21:26.317Z,97693.88
2023-03-12T23:23:55.058Z,97691.28
2023-03-12T23:26:26.156Z,97726.59
2023-03-12T23:28:55.027Z,97704.88
2023-03-12T23:31:24.184Z,97706.97
2023-03-12T23:33:53.916Z,97719.00
2023-03-12T23:36:24.083Z,97723.25
2023-03-12T23:38:52.318Z,97724.25
2023-03-12T23:41:22.438Z,97726.94
2023-03-12T23:43:50.770Z,97724.50
2023-03-12T23:46:20.174Z,97725.31
2023-03-12T23:48:48.937Z,97714.25
2023-03-12T23:51:20.380Z,97718.53
2023-03-12T23:53:50.217Z,97712.34
2023-03-12T23:56:20.287Z,97725.03
2023-03-12T23:58:49.202Z,97706.34
